createdAt,value
2022-10-22T00:01:12.531Z,60.84
2022-10-22T00:03:40.724Z,61.09
2022-10-22T00:06:09.277Z,61.01
2022-10-22T00:08:38.394Z,60.64
2022-10-22T00:11:14.607Z,60.71
2022-10-22T00:13:43.831Z,60.63
2022-10-22T00:16:12.721Z,60.53
2022-10-22T00:18:41.728Z,60.57
2022-10-22T00:21:13.166Z,60.73
2022-10-22T00:23:42.885Z,60.99
2022-10-22T00:26:11.603Z,61.11
2022-10-22T00:28:39.876Z,60.82
2022-10-22T00:31:07.838Z,60.61
2022-10-22T00:33:35.637Z,60.46
2022-10-22T00:36:03.557Z,60.45
2022-10-22T00:38:31.349Z,60.45
2022-10-22T00:40:59.448Z,60.47
2022-10-22T00:43:28.212Z,60.55
2022-10-22T00:45:56.120Z,60.45
2022-10-22T00:48:30.164Z,60.00
2022-10-22T00:51:06.630Z,60.14
2022-10-22T00:53:50.023Z,60.12
2022-10-22T00:56:19.046Z,60.29
2022-10-22T00:58:56.006Z,60.24
2022-10-22T01:01:32.161Z,60.13
2022-10-22T01:04:01.458Z,60.21
2022-10-22T01:06:33.446Z,60.04
2022-10-22T01:09:28.677Z,59.95
2022-10-22T01:11:56.294Z,60.29
2022-10-22T01:14:32.573Z,59.97
2022-10-22T01:17:08.892Z,60.02
2022-10-22T01:20:00.804Z,59.76
2022-10-22T01:22:56.259Z,60.70
2022-10-22T01:25:59.439Z,60.33
2022-10-22T01:29:26.188Z,60.26
2022-10-22T01:32:06.104Z,60.13
2022-10-22T01:34:38.045Z,60.02
2022-10-22T01:37:06.743Z,60.09
2022-10-22T01:39:37.189Z,59.76
2022-10-22T01:42:06.443Z,60.19
2022-10-22T01:44:37.776Z,60.32
2022-10-22T01:47:36.682Z,60.38
2022-10-22T01:51:05.732Z,60.22
2022-10-22T01:56:48.364Z,60.18
2022-10-22T01:59:37.407Z,60.45
2022-10-22T02:02:40.146Z,60.41
2022-10-22T02:05:26.992Z,60.59
2022-10-22T02:08:06.630Z,60.58
2022-10-22T02:10:40.377Z,60.80
2022-10-22T02:13:30.107Z,60.76
2022-10-22T02:15:59.681Z,60.88
2022-10-22T02:18:36.416Z,60.65
2022-10-22T02:23:42.438Z,60.94
2022-10-22T02:26:45.328Z,60.63
2022-10-22T02:29:22.775Z,61.06
2022-10-22T02:31:55.867Z,60.92
2022-10-22T02:34:30.170Z,61.08
2022-10-22T02:37:01.300Z,60.89
2022-10-22T02:39:50.264Z,61.20
2022-10-22T02:42:41.264Z,61.04
2022-10-22T02:45:11.041Z,61.16
2022-10-22T02:47:39.933Z,61.32
2022-10-22T02:50:10.376Z,61.34
2022-10-22T02:52:40.606Z,61.25
2022-10-22T02:55:09.762Z,61.21
2022-10-22T02:57:37.827Z,61.32
2022-10-22T03:00:09.641Z,61.10
2022-10-22T03:02:40.586Z,61.35
2022-10-22T03:05:09.438Z,61.47
2022-10-22T03:07:38.830Z,61.35
2022-10-22T03:10:08.022Z,61.34
2022-10-22T03:12:37.379Z,61.36
2022-10-22T03:15:06.422Z,61.16
2022-10-22T03:17:34.091Z,61.25
2022-10-22T03:20:03.338Z,61.40
2022-10-22T03:22:35.254Z,61.31
2022-10-22T03:25:11.353Z,61.02
2022-10-22T03:27:41.326Z,61.25
2022-10-22T03:30:10.990Z,61.32
2022-10-22T03:32:39.317Z,61.55
2022-10-22T03:35:08.727Z,61.43
2022-10-22T03:37:37.422Z,61.38
2022-10-22T03:40:07.921Z,61.31
2022-10-22T03:42:36.037Z,61.32
2022-10-22T03:45:06.060Z,61.06
2022-10-22T03:47:34.866Z,61.37
2022-10-22T03:50:07.177Z,61.19
2022-10-22T03:52:40.377Z,60.91
2022-10-22T03:55:09.214Z,60.98
2022-10-22T03:57:37.240Z,60.96
2022-10-22T04:00:07.487Z,60.61
2022-10-22T04:02:35.289Z,60.62
2022-10-22T04:05:03.447Z,60.67
2022-10-22T04:07:31.717Z,60.64
2022-10-22T04:09:59.910Z,60.75
2022-10-22T04:12:27.988Z,60.77
2022-10-22T04:14:56.061Z,60.67
2022-10-22T04:17:24.708Z,60.56
2022-10-22T04:19:53.243Z,60.50
2022-10-22T04:22:22.724Z,60.57
2022-10-22T04:27:24.841Z,60.95
2022-10-22T04:29:53.350Z,61.10
2022-10-22T04:32:21.189Z,61.42
2022-10-22T04:34:49.300Z,61.45
2022-10-22T04:37:17.148Z,61.40
2022-10-22T04:39:45.998Z,61.61
2022-10-22T04:42:15.058Z,61.48
2022-10-22T04:44:44.425Z,61.52
2022-10-22T04:47:12.415Z,61.65
2022-10-22T04:49:41.013Z,61.67
2022-10-22T04:52:09.049Z,61.54
2022-10-22T04:54:36.782Z,61.47
2022-10-22T04:57:05.025Z,61.62
2022-10-22T04:59:33.341Z,61.61
2022-10-22T05:02:01.838Z,61.67
2022-10-22T05:04:31.580Z,61.40
2022-10-22T05:06:59.710Z,61.38
2022-10-22T05:09:27.746Z,61.36
2022-10-22T05:11:55.561Z,61.38
2022-10-22T05:14:25.450Z,61.43
2022-10-22T05:16:54.015Z,61.30
2022-10-22T05:19:25.567Z,61.23
2022-10-22T05:21:57.760Z,61.21
2022-10-22T05:24:28.492Z,61.33
2022-10-22T05:26:58.515Z,61.23
2022-10-22T05:29:27.422Z,61.39
2022-10-22T05:31:56.189Z,61.36
2022-10-22T05:34:24.020Z,61.38
2022-10-22T05:36:51.866Z,61.44
2022-10-22T05:39:20.074Z,61.27
2022-10-22T05:41:49.090Z,61.46
2022-10-22T05:44:17.151Z,61.58
2022-10-22T05:46:46.048Z,61.40
2022-10-22T05:49:16.827Z,61.33
2022-10-22T05:51:44.737Z,61.50
2022-10-22T05:54:20.782Z,61.42
2022-10-22T05:56:49.297Z,61.88
2022-10-22T05:59:17.290Z,61.91
2022-10-22T06:01:45.537Z,61.92
2022-10-22T06:04:14.247Z,61.89
2022-10-22T06:06:51.076Z,61.71
2022-10-22T06:09:31.894Z,61.63
2022-10-22T06:11:59.908Z,61.96
2022-10-22T06:14:32.630Z,61.78
2022-10-22T06:17:01.202Z,61.96
2022-10-22T06:19:31.764Z,61.98
2022-10-22T06:22:00.270Z,61.89
2022-10-22T06:24:28.165Z,61.83
2022-10-22T06:26:55.974Z,61.78
2022-10-22T06:29:24.196Z,62.01
2022-10-22T06:31:53.641Z,61.98
2022-10-22T06:34:21.623Z,62.06
2022-10-22T06:36:49.395Z,62.00
2022-10-22T06:39:18.424Z,62.14
2022-10-22T06:41:47.094Z,62.50
2022-10-22T06:44:19.671Z,62.40
2022-10-22T06:46:52.337Z,62.32
2022-10-22T06:49:21.736Z,62.30
2022-10-22T06:51:53.844Z,62.07
2022-10-22T06:54:23.269Z,62.36
2022-10-22T06:56:51.095Z,62.12
2022-10-22T06:59:19.361Z,62.01
2022-10-22T07:01:47.693Z,62.17
2022-10-22T07:04:17.579Z,62.21
2022-10-22T07:06:45.773Z,62.06
2022-10-22T07:09:14.153Z,62.33
2022-10-22T07:11:45.566Z,62.08
2022-10-22T07:14:14.549Z,62.39
2022-10-22T07:16:43.469Z,62.34
2022-10-22T07:19:12.228Z,62.45
2022-10-22T07:21:40.503Z,62.29
2022-10-22T07:24:08.959Z,62.39
2022-10-22T07:26:37.932Z,62.26
2022-10-22T07:29:06.902Z,62.28
2022-10-22T07:31:35.059Z,62.48
2022-10-22T07:34:03.332Z,62.68
2022-10-22T07:36:34.628Z,62.66
2022-10-22T07:39:03.784Z,62.97
2022-10-22T07:41:31.820Z,62.96
2022-10-22T07:44:00.071Z,63.01
2022-10-22T07:46:28.474Z,63.12
2022-10-22T07:48:57.137Z,63.09
2022-10-22T07:51:25.025Z,63.42
2022-10-22T07:53:53.281Z,63.35
2022-10-22T07:56:21.300Z,63.21
2022-10-22T07:58:51.613Z,63.12
2022-10-22T08:01:19.795Z,63.28
2022-10-22T08:03:48.797Z,63.30
2022-10-22T08:06:17.718Z,63.11
2022-10-22T08:08:46.785Z,62.79
2022-10-22T08:11:14.833Z,62.97
2022-10-22T08:13:45.423Z,62.58
2022-10-22T08:16:14.767Z,62.69
2022-10-22T08:18:44.000Z,62.86
2022-10-22T08:21:13.286Z,62.56
2022-10-22T08:23:41.293Z,62.18
2022-10-22T08:26:11.372Z,62.48
2022-10-22T08:28:39.847Z,62.50
2022-10-22T08:31:10.091Z,62.28
2022-10-22T08:33:39.125Z,62.05
2022-10-22T08:36:07.845Z,61.97
2022-10-22T08:38:36.232Z,62.01
2022-10-22T08:41:25.207Z,62.06
2022-10-22T08:44:05.813Z,61.96
2022-10-22T08:46:58.313Z,61.77
2022-10-22T08:49:31.994Z,61.93
2022-10-22T08:52:00.863Z,61.75
2022-10-22T08:54:51.968Z,61.35
2022-10-22T08:57:41.893Z,61.45
2022-10-22T09:00:35.934Z,61.16
2022-10-22T09:03:27.098Z,61.11
2022-10-22T09:06:16.565Z,61.26
2022-10-22T09:08:47.182Z,61.28
2022-10-22T09:11:30.676Z,60.98
2022-10-22T09:14:00.398Z,61.05
2022-10-22T09:16:43.060Z,60.65
2022-10-22T09:19:47.581Z,60.64
2022-10-22T09:22:57.883Z,60.75
2022-10-22T09:25:35.241Z,60.73
2022-10-22T09:28:05.965Z,60.88
2022-10-22T09:30:37.999Z,60.47
2022-10-22T09:36:08.384Z,60.50
2022-10-22T09:38:52.098Z,60.13
2022-10-22T09:41:25.780Z,60.18
2022-10-22T09:43:54.147Z,60.08
2022-10-22T09:46:30.030Z,59.64
2022-10-22T09:49:10.236Z,59.79
2022-10-22T09:51:52.283Z,59.47
2022-10-22T09:54:32.396Z,59.54
2022-10-22T09:57:22.104Z,59.21
2022-10-22T09:59:54.039Z,59.47
2022-10-22T10:02:38.065Z,59.64
2022-10-22T10:05:09.275Z,59.17
2022-10-22T10:07:37.828Z,59.19
2022-10-22T10:10:49.048Z,58.50
2022-10-22T10:13:38.947Z,58.97
2022-10-22T10:16:27.644Z,58.62
2022-10-22T10:19:01.165Z,58.82
2022-10-22T10:21:58.073Z,58.42
2022-10-22T10:24:41.569Z,58.66
2022-10-22T10:27:53.584Z,58.32
2022-10-22T10:30:25.722Z,59.01
2022-10-22T10:33:21.343Z,58.71
2022-10-22T10:36:00.136Z,58.45
2022-10-22T10:38:58.145Z,58.26
2022-10-22T10:41:59.047Z,58.13
2022-10-22T10:45:04.176Z,58.23
2022-10-22T10:48:09.867Z,58.07
2022-10-22T10:51:03.075Z,58.13
2022-10-22T10:53:53.695Z,57.62
2022-10-22T10:56:39.057Z,57.75
2022-10-22T10:59:23.264Z,57.35
2022-10-22T11:01:58.877Z,57.24
2022-10-22T11:04:48.064Z,56.79
2022-10-22T11:07:34.123Z,56.90
2022-10-22T11:10:52.228Z,56.48
2022-10-22T11:14:42.179Z,56.38
2022-10-22T11:17:18.639Z,56.50
2022-10-22T11:20:14.038Z,56.25
2022-10-22T11:23:18.245Z,55.97
2022-10-22T11:25:49.876Z,55.81
2022-10-22T11:28:46.438Z,55.28
2022-10-22T11:31:17.355Z,55.56
2022-10-22T11:34:34.481Z,55.11
2022-10-22T11:37:06.118Z,55.55
2022-10-22T11:39:57.786Z,54.67
2022-10-22T11:42:39.253Z,54.96
2022-10-22T11:45:30.183Z,54.58
2022-10-22T11:48:17.115Z,54.74
2022-10-22T11:50:55.026Z,54.58
2022-10-22T11:53:25.937Z,54.34
2022-10-22T11:56:24.427Z,54.24
2022-10-22T11:58:55.800Z,54.32
2022-10-22T12:01:28.544Z,54.66
2022-10-22T12:03:59.212Z,54.75
2022-10-22T12:06:29.040Z,54.03
2022-10-22T12:09:07.296Z,53.82
2022-10-22T12:11:47.759Z,54.10
2022-10-22T12:14:51.508Z,53.85
2022-10-22T12:17:21.851Z,54.16
2022-10-22T12:20:07.543Z,53.74
2022-10-22T12:22:39.274Z,54.21
2022-10-22T12:25:21.813Z,53.46
2022-10-22T12:27:57.480Z,53.51
2022-10-22T12:30:35.027Z,53.48
2022-10-22T12:33:18.881Z,53.19
2022-10-22T12:35:51.793Z,53.57
2022-10-22T12:38:37.763Z,53.58
2022-10-22T12:41:11.317Z,53.50
2022-10-22T12:43:49.998Z,53.28
2022-10-22T12:46:23.042Z,53.30
2022-10-22T12:48:50.967Z,52.93
2022-10-22T12:51:20.633Z,53.12
2022-10-22T12:53:55.434Z,52.38
2022-10-22T12:56:33.997Z,52.53
2022-10-22T12:59:24.448Z,52.12
2022-10-22T13:01:53.852Z,52.08
2022-10-22T13:04:36.610Z,51.39
2022-10-22T13:07:15.965Z,51.29
2022-10-22T13:10:36.117Z,51.07
2022-10-22T13:13:06.815Z,51.45
2022-10-22T13:15:39.084Z,51.11
2022-10-22T13:18:21.160Z,49.99
2022-10-22T13:21:01.969Z,50.26
2022-10-22T13:23:33.569Z,50.35
2022-10-22T13:26:18.414Z,50.27
2022-10-22T13:28:58.304Z,50.18
2022-10-22T13:31:32.128Z,50.40
2022-10-22T13:34:09.897Z,49.97
2022-10-22T13:36:40.060Z,49.99
2022-10-22T13:39:21.144Z,48.87
2022-10-22T13:41:51.913Z,49.60
2022-10-22T13:44:20.107Z,49.40
2022-10-22T13:46:49.336Z,49.09
2022-10-22T13:49:20.720Z,49.09
2022-10-22T13:51:50.896Z,48.99
2022-10-22T13:54:23.054Z,48.88
2022-10-22T13:56:51.075Z,48.82
2022-10-22T13:59:22.762Z,48.89
2022-10-22T14:01:57.082Z,49.07
2022-10-22T14:04:25.570Z,48.99
2022-10-22T14:06:53.964Z,48.49
2022-10-22T14:09:21.923Z,47.75
2022-10-22T14:11:49.957Z,47.84
2022-10-22T14:14:18.861Z,47.86
2022-10-22T14:16:46.988Z,47.76
2022-10-22T14:19:18.600Z,47.67
2022-10-22T14:21:49.431Z,47.66
2022-10-22T14:24:17.849Z,47.65
2022-10-22T14:26:48.671Z,47.90
2022-10-22T14:29:16.959Z,47.48
2022-10-22T14:31:46.600Z,47.08
2022-10-22T14:34:17.639Z,47.09
2022-10-22T14:36:46.385Z,46.73
2022-10-22T14:39:34.360Z,46.86
2022-10-22T14:42:22.361Z,46.61
2022-10-22T14:45:02.417Z,46.22
2022-10-22T14:47:31.888Z,45.92
2022-10-22T14:50:02.193Z,45.90
2022-10-22T14:52:30.587Z,46.08
2022-10-22T14:54:59.681Z,45.81
2022-10-22T14:57:30.533Z,46.10
2022-10-22T14:59:58.871Z,46.23
2022-10-22T15:02:26.997Z,45.80
2022-10-22T15:04:55.568Z,45.93
2022-10-22T15:07:25.512Z,45.73
2022-10-22T15:09:54.413Z,45.70
2022-10-22T15:12:22.402Z,45.51
2022-10-22T15:14:52.019Z,45.65
2022-10-22T15:17:20.119Z,45.91
2022-10-22T15:19:49.251Z,45.70
2022-10-22T15:22:17.552Z,45.44
2022-10-22T15:24:45.983Z,45.58
2022-10-22T15:27:15.083Z,45.19
2022-10-22T15:29:43.752Z,45.47
2022-10-22T15:32:11.975Z,45.42
2022-10-22T15:34:41.002Z,45.13
2022-10-22T15:37:12.542Z,45.32
2022-10-22T15:39:42.292Z,45.24
2022-10-22T15:42:10.652Z,45.58
2022-10-22T15:44:39.987Z,45.65
2022-10-22T15:47:08.268Z,45.75
2022-10-22T15:49:39.123Z,46.19
2022-10-22T15:52:09.853Z,46.10
2022-10-22T15:54:40.811Z,46.30
2022-10-22T15:57:10.860Z,46.64
2022-10-22T15:59:39.960Z,47.13
2022-10-22T16:02:07.876Z,47.35
2022-10-22T16:04:35.663Z,47.49
2022-10-22T16:07:03.624Z,47.69
2022-10-22T16:09:31.536Z,48.42
2022-10-22T16:11:59.625Z,48.42
2022-10-22T16:14:29.130Z,48.42
2022-10-22T16:16:57.581Z,48.62
2022-10-22T16:19:26.346Z,48.73
2022-10-22T16:21:57.034Z,48.86
2022-10-22T16:24:25.099Z,48.80
2022-10-22T16:26:53.477Z,49.02
2022-10-22T16:29:21.731Z,48.80
2022-10-22T16:31:50.444Z,48.98
2022-10-22T16:34:18.528Z,49.13
2022-10-22T16:36:46.676Z,49.19
2022-10-22T16:39:14.588Z,49.68
2022-10-22T16:41:48.346Z,49.93
2022-10-22T16:44:16.492Z,50.08
2022-10-22T16:46:44.575Z,50.18
2022-10-22T16:49:13.068Z,50.30
2022-10-22T16:51:41.635Z,50.55
2022-10-22T16:54:13.404Z,50.80
2022-10-22T16:56:42.624Z,50.60
2022-10-22T16:59:10.949Z,50.69
2022-10-22T17:01:41.171Z,50.67
2022-10-22T17:04:10.539Z,50.62
2022-10-22T17:06:39.003Z,50.61
2022-10-22T17:09:07.695Z,50.73
2022-10-22T17:11:40.146Z,50.71
2022-10-22T17:14:14.512Z,50.70
2022-10-22T17:16:43.558Z,50.61
2022-10-22T17:19:16.009Z,50.83
2022-10-22T17:21:44.304Z,50.86
2022-10-22T17:24:13.060Z,50.92
2022-10-22T17:26:43.318Z,51.06
2022-10-22T17:29:12.963Z,50.94
2022-10-22T17:31:41.916Z,51.22
2022-10-22T17:34:16.063Z,51.20
2022-10-22T17:36:44.982Z,51.69
2022-10-22T17:39:18.120Z,51.56
2022-10-22T17:41:45.931Z,51.62
2022-10-22T17:44:15.589Z,51.78
2022-10-22T17:46:49.890Z,51.70
2022-10-22T17:49:20.355Z,51.57
2022-10-22T17:51:48.856Z,51.80
2022-10-22T17:54:16.677Z,51.98
2022-10-22T17:56:45.205Z,51.87
2022-10-22T17:59:15.876Z,52.12
2022-10-22T18:01:45.828Z,52.34
2022-10-22T18:04:17.850Z,52.29
2022-10-22T18:06:47.796Z,52.51
2022-10-22T18:09:19.215Z,52.59
2022-10-22T18:11:49.348Z,52.83
2022-10-22T18:14:20.330Z,52.89
2022-10-22T18:16:49.532Z,52.81
2022-10-22T18:19:23.449Z,52.98
2022-10-22T18:21:51.244Z,53.10
2022-10-22T18:24:20.307Z,52.98
2022-10-22T18:26:48.339Z,53.06
2022-10-22T18:29:18.940Z,53.16
2022-10-22T18:31:47.858Z,53.34
2022-10-22T18:34:17.755Z,53.12
2022-10-22T18:36:48.143Z,53.45
2022-10-22T18:39:16.391Z,53.17
2022-10-22T18:41:44.160Z,53.22
2022-10-22T18:44:14.488Z,53.31
2022-10-22T18:46:42.686Z,53.27
2022-10-22T18:49:20.814Z,53.34
2022-10-22T18:51:52.818Z,53.56
2022-10-22T18:54:23.907Z,53.41
2022-10-22T18:57:00.541Z,53.21
2022-10-22T18:59:31.403Z,53.45
2022-10-22T19:01:59.804Z,53.28
2022-10-22T19:04:36.501Z,53.20
2022-10-22T19:07:06.656Z,53.33
2022-10-22T19:09:36.292Z,53.17
2022-10-22T19:12:05.067Z,53.38
2022-10-22T19:14:33.660Z,53.55
2022-10-22T19:17:06.205Z,53.53
2022-10-22T19:19:34.720Z,53.57
2022-10-22T19:22:06.055Z,53.50
2022-10-22T19:24:35.116Z,53.71
2022-10-22T19:27:03.729Z,53.53
2022-10-22T19:29:32.614Z,53.65
2022-10-22T19:32:01.316Z,53.51
2022-10-22T19:34:29.743Z,53.97
2022-10-22T19:36:59.681Z,53.88
2022-10-22T19:39:28.496Z,53.76
2022-10-22T19:41:56.556Z,53.90
2022-10-22T19:44:25.058Z,53.88
2022-10-22T19:46:54.174Z,53.77
2022-10-22T19:49:23.156Z,53.98
2022-10-22T19:51:53.028Z,54.02
2022-10-22T19:54:21.663Z,53.96
2022-10-22T19:56:51.747Z,54.08
2022-10-22T19:59:24.017Z,54.19
2022-10-22T20:01:53.508Z,54.05
2022-10-22T20:04:25.249Z,54.20
2022-10-22T20:06:53.485Z,54.16
2022-10-22T20:09:21.895Z,53.98
2022-10-22T20:11:50.501Z,54.07
2022-10-22T20:14:19.175Z,54.20
2022-10-22T20:16:49.982Z,54.32
2022-10-22T20:19:19.768Z,54.08
2022-10-22T20:21:52.602Z,54.38
2022-10-22T20:24:22.169Z,54.32
2022-10-22T20:26:51.140Z,54.47
2022-10-22T20:29:19.244Z,54.53
2022-10-22T20:31:48.410Z,54.37
2022-10-22T20:34:17.046Z,54.47
2022-10-22T20:36:45.869Z,54.61
2022-10-22T20:39:25.080Z,54.58
2022-10-22T20:41:53.645Z,54.55
2022-10-22T20:44:21.808Z,54.56
2022-10-22T20:46:53.832Z,54.54
2022-10-22T20:49:22.676Z,54.54
2022-10-22T20:51:51.623Z,54.77
2022-10-22T20:54:20.475Z,54.79
2022-10-22T20:56:48.599Z,54.79
2022-10-22T20:59:17.726Z,54.75
2022-10-22T21:01:52.888Z,54.37
2022-10-22T21:04:24.232Z,54.83
2022-10-22T21:06:54.179Z,54.57
2022-10-22T21:09:23.238Z,54.85
2022-10-22T21:11:56.814Z,54.93
2022-10-22T21:14:25.183Z,54.62
2022-10-22T21:16:54.581Z,54.69
2022-10-22T21:19:24.239Z,54.53
2022-10-22T21:21:55.288Z,54.68
2022-10-22T21:24:26.124Z,54.86
2022-10-22T21:26:54.985Z,54.70
2022-10-22T21:29:23.581Z,54.76
2022-10-22T21:31:54.202Z,54.64
2022-10-22T21:34:22.481Z,54.57
2022-10-22T21:36:53.535Z,54.65
2022-10-22T21:39:22.105Z,54.87
2022-10-22T21:41:50.336Z,54.79
2022-10-22T21:44:18.260Z,54.98
2022-10-22T21:46:46.655Z,54.80
2022-10-22T21:49:14.683Z,54.86
2022-10-22T21:51:44.273Z,54.64
2022-10-22T21:54:13.161Z,54.83
2022-10-22T21:56:42.678Z,54.68
2022-10-22T21:59:11.103Z,54.84
2022-10-22T22:01:41.641Z,54.89
2022-10-22T22:04:10.587Z,54.95
2022-10-22T22:06:40.242Z,54.77
2022-10-22T22:09:08.883Z,54.99
2022-10-22T22:11:37.467Z,54.92
2022-10-22T22:14:05.306Z,54.97
2022-10-22T22:16:34.542Z,55.01
2022-10-22T22:19:07.380Z,55.05
2022-10-22T22:21:39.850Z,55.23
2022-10-22T22:24:11.426Z,55.16
2022-10-22T22:26:40.096Z,55.19
2022-10-22T22:29:08.425Z,54.93
2022-10-22T22:31:38.635Z,55.00
2022-10-22T22:34:13.639Z,54.83
2022-10-22T22:36:45.694Z,54.98
2022-10-22T22:39:17.862Z,54.91
2022-10-22T22:41:47.138Z,55.06
2022-10-22T22:44:16.876Z,54.79
2022-10-22T22:46:45.089Z,54.89
2022-10-22T22:49:14.046Z,54.80
2022-10-22T22:51:43.452Z,54.88
2022-10-22T22:54:11.869Z,54.96
2022-10-22T22:56:41.163Z,54.94
2022-10-22T22:59:10.497Z,54.85
2022-10-22T23:01:39.472Z,54.85
2022-10-22T23:04:13.238Z,54.78
2022-10-22T23:06:41.806Z,55.02
2022-10-22T23:09:13.410Z,54.96
2022-10-22T23:11:43.536Z,54.73
2022-10-22T23:14:14.773Z,54.72
2022-10-22T23:16:47.608Z,54.68
2022-10-22T23:19:18.905Z,54.73
2022-10-22T23:21:55.468Z,54.72
2022-10-22T23:24:27.583Z,54.96
2022-10-22T23:27:01.910Z,54.90
2022-10-22T23:29:34.225Z,55.02
2022-10-22T23:32:07.457Z,55.17
2022-10-22T23:34:35.982Z,55.20
2022-10-22T23:37:04.429Z,55.12
2022-10-22T23:39:32.231Z,55.17
2022-10-22T23:42:00.205Z,55.25
2022-10-22T23:44:30.055Z,55.27
2022-10-22T23:46:57.959Z,55.42
2022-10-22T23:49:25.714Z,55.41
2022-10-22T23:51:53.506Z,55.29
2022-10-22T23:54:21.513Z,55.38
2022-10-22T23:56:49.490Z,55.51
2022-10-22T23:59:17.688Z,55.48
